Pagina principale
METAR-TAF:

METAR-TAF

Aeroporti :

Catania, Italia

Aeroporto di Catania-Fontanarossa

latitudine: 37-28N, longitudine: 015-03E, altezza: 11 m

Osservazione

Il bollettino è stato emesso 13 minuti fa, alle 20:20 UTC
Vento 6 kt da sud-ovest, variando fra sud/sud-ovest e ovest
Temperature 26°C
Umidità 70%
Pressione 1006 hPa
Visibilità 10 km o più
nessuna nube inferiore a 1500 m e nessun cumulonembo

METAR: LICC 252020Z 23006KT 200V270 CAVOK 26/20 Q1006

Ora: 22:33 (20:33 UTC)

Previsione

Il bollettino è stato emesso 3 ore e 33 minuti fa, alle 17:00 UTC
Previsione valida dal 25 alle 18 UTC al 26 alle 18 UTC
Vento 13 kt da est
Visibilità 10 km o più
nessuna nube inferiore a 1500 m e nessun cumulonembo
Evoluzione graduale
dal 25 alle 19 UTC al 25 alle 21 UTC
Vento 8 kt da ovest/nord-ovest
Evoluzione graduale
dal 26 alle 08 UTC al 26 alle 10 UTC
Vento 12 kt da est

TAF: LICC 251700Z 2518/2618 09013KT CAVOK BECMG 2519/2521 30008KT BECMG 2608/2610 08012KT

Osservazioni e previsioni meteorologiche di più di 4000 aeroporti (messaggi METAR e TAF).

Le stazioni disponibili sono rappresentate dai dischi gialli e rossi sulla carta.

Puntare il mouse per vedere il nome della stazione.

Clicca sopra per visualizzare le osservazioni e previsioni meteorologiche.

Per cambiare la mappa : fare clic sui pulsanti verdi con una croce nera per ingrandire, il pulsante verde con un trattino per diminuire, o sulla freccia verde per le mappe adiacenti.


METAR-TAF: